createdAt,value
2018-08-16T00:00:18.026Z,8.63
2018-08-16T00:02:47.664Z,8.30
2018-08-16T00:05:16.881Z,15.20
2018-08-16T00:07:45.940Z,17.77
2018-08-16T00:10:16.844Z,20.00
2018-08-16T00:12:47.222Z,16.73
2018-08-16T00:15:17.054Z,13.00
2018-08-16T00:17:45.895Z,12.10
2018-08-16T00:20:15.300Z,14.07
2018-08-16T00:22:44.924Z,12.77
2018-08-16T00:25:14.670Z,10.03
2018-08-16T00:27:44.210Z,18.13
2018-08-16T00:30:13.780Z,11.90
2018-08-16T00:32:43.473Z,14.00
2018-08-16T00:35:12.797Z,13.77
2018-08-16T00:37:41.761Z,13.63
2018-08-16T00:40:12.314Z,14.07
2018-08-16T00:42:41.575Z,17.57
2018-08-16T00:45:11.746Z,10.53
2018-08-16T00:47:40.955Z,14.33
2018-08-16T00:50:11.775Z,18.27
2018-08-16T00:52:41.254Z,15.37
2018-08-16T00:55:11.696Z,13.17
2018-08-16T00:57:40.996Z,18.83
2018-08-16T01:00:13.360Z,17.03
2018-08-16T01:02:42.714Z,11.37
2018-08-16T01:05:12.464Z,11.37
2018-08-16T01:07:41.872Z,14.00
2018-08-16T01:10:13.851Z,8.93
2018-08-16T01:12:43.976Z,12.40
2018-08-16T01:15:15.101Z,14.83
2018-08-16T01:17:44.403Z,15.00
2018-08-16T01:20:13.369Z,13.50
2018-08-16T01:22:42.184Z,9.63
2018-08-16T01:25:12.165Z,10.20
2018-08-16T01:27:41.061Z,20.40
2018-08-16T01:30:10.615Z,16.97
2018-08-16T01:32:39.904Z,14.77
2018-08-16T01:35:09.578Z,14.40
2018-08-16T01:37:38.741Z,13.17
2018-08-16T01:40:08.331Z,18.83
2018-08-16T01:42:37.990Z,13.80
2018-08-16T01:45:07.184Z,14.63
2018-08-16T01:47:36.016Z,13.10
2018-08-16T01:50:06.364Z,13.20
2018-08-16T01:52:35.687Z,12.40
2018-08-16T01:55:05.028Z,10.90
2018-08-16T01:57:33.867Z,14.10
2018-08-16T02:00:03.137Z,9.80
2018-08-16T02:02:32.484Z,6.53
2018-08-16T02:05:02.730Z,7.33
2018-08-16T02:07:32.085Z,8.83
2018-08-16T02:10:01.025Z,9.60
2018-08-16T02:12:29.792Z,10.67
2018-08-16T02:14:58.643Z,13.37
2018-08-16T02:17:27.488Z,8.77
2018-08-16T02:19:56.325Z,15.10
2018-08-16T02:22:25.585Z,11.80
2018-08-16T02:24:54.878Z,11.07
2018-08-16T02:27:23.757Z,13.80
2018-08-16T02:29:53.052Z,16.33
2018-08-16T02:32:22.359Z,7.53
2018-08-16T02:34:51.668Z,12.93
2018-08-16T02:37:20.613Z,12.37
2018-08-16T02:39:49.846Z,10.57
2018-08-16T02:42:18.748Z,7.47
2018-08-16T02:44:47.556Z,12.10
2018-08-16T02:47:16.417Z,10.30
2018-08-16T02:49:45.211Z,11.87
2018-08-16T02:52:14.425Z,9.83
2018-08-16T02:54:43.765Z,14.67
2018-08-16T02:57:12.691Z,13.13
2018-08-16T02:59:41.946Z,13.83
2018-08-16T03:02:10.873Z,10.07
2018-08-16T03:04:40.053Z,14.53
2018-08-16T03:07:09.358Z,9.70
2018-08-16T03:09:38.678Z,11.17
2018-08-16T03:12:10.087Z,8.73
2018-08-16T03:14:39.387Z,11.90
2018-08-16T03:17:08.185Z,14.07
2018-08-16T03:19:37.382Z,10.67
2018-08-16T03:22:06.960Z,10.87
2018-08-16T03:24:36.265Z,10.27
2018-08-16T03:27:05.652Z,13.50
2018-08-16T03:29:34.961Z,7.07
2018-08-16T03:32:04.309Z,5.93
2018-08-16T03:34:33.220Z,9.67
2018-08-16T03:37:02.622Z,9.20
2018-08-16T03:39:31.616Z,15.17
2018-08-16T03:42:00.875Z,10.63
2018-08-16T03:44:30.140Z,10.10
2018-08-16T03:46:59.168Z,8.70
2018-08-16T03:49:27.994Z,6.77
2018-08-16T03:51:57.181Z,9.27
2018-08-16T03:54:26.402Z,9.93
2018-08-16T03:56:55.711Z,13.13
2018-08-16T03:59:24.951Z,12.93
2018-08-16T04:01:53.759Z,12.77
2018-08-16T04:04:22.573Z,12.53
2018-08-16T04:06:51.405Z,10.07
2018-08-16T04:09:20.592Z,11.83
2018-08-16T04:11:49.921Z,9.70
2018-08-16T04:14:19.204Z,9.93
2018-08-16T04:16:48.452Z,13.93
2018-08-16T04:19:17.800Z,9.97
2018-08-16T04:21:47.101Z,12.87
2018-08-16T04:24:16.343Z,8.37
2018-08-16T04:26:45.264Z,11.07
2018-08-16T04:29:14.429Z,8.83
2018-08-16T04:31:43.558Z,8.73
2018-08-16T04:34:12.524Z,7.70
2018-08-16T04:36:41.784Z,6.77
2018-08-16T04:39:11.521Z,7.43
2018-08-16T04:41:40.942Z,8.63
2018-08-16T04:44:09.723Z,8.07
2018-08-16T04:46:38.929Z,7.30
2018-08-16T04:49:08.292Z,6.60
2018-08-16T04:51:37.180Z,6.63
2018-08-16T04:54:05.983Z,5.43
2018-08-16T04:56:34.819Z,8.50
2018-08-16T04:59:03.612Z,7.67
2018-08-16T05:01:32.440Z,8.07
2018-08-16T05:04:01.655Z,6.50
2018-08-16T05:06:31.004Z,9.07
2018-08-16T05:09:00.270Z,8.67
2018-08-16T05:11:29.594Z,7.50
2018-08-16T05:13:58.871Z,8.23
2018-08-16T05:16:28.185Z,4.50
2018-08-16T05:18:57.461Z,7.03
2018-08-16T05:21:26.349Z,5.77
2018-08-16T05:23:55.606Z,5.00
2018-08-16T05:26:24.845Z,6.60
2018-08-16T05:28:54.108Z,7.07
2018-08-16T05:31:23.426Z,7.23
2018-08-16T05:33:52.355Z,8.03
2018-08-16T05:36:21.520Z,7.87
2018-08-16T05:38:50.459Z,10.07
2018-08-16T05:41:19.583Z,9.97
2018-08-16T05:43:48.553Z,7.93
2018-08-16T05:46:17.417Z,7.87
2018-08-16T05:48:46.504Z,7.43
2018-08-16T05:51:15.808Z,8.63
2018-08-16T05:53:44.729Z,11.33
2018-08-16T05:56:13.589Z,12.50
2018-08-16T05:58:42.789Z,13.03
2018-08-16T06:01:11.811Z,11.27
2018-08-16T06:03:40.608Z,8.43
2018-08-16T06:06:09.441Z,8.43
2018-08-16T06:08:38.251Z,12.33
2018-08-16T06:11:07.428Z,8.87
2018-08-16T06:13:36.368Z,8.80
2018-08-16T06:16:06.273Z,9.27
2018-08-16T06:18:35.239Z,8.07
2018-08-16T06:21:04.443Z,11.97
2018-08-16T06:23:58.012Z,9.43
2018-08-16T06:26:26.781Z,9.37
2018-08-16T06:28:56.053Z,11.83
2018-08-16T06:31:25.004Z,9.73
2018-08-16T06:33:54.204Z,11.83
2018-08-16T06:36:23.430Z,8.83
2018-08-16T06:38:52.408Z,8.00
2018-08-16T06:41:21.692Z,5.10
2018-08-16T06:43:50.592Z,4.73
2018-08-16T06:46:19.443Z,10.53
2018-08-16T06:48:48.267Z,6.07
2018-08-16T06:51:17.470Z,6.23
2018-08-16T06:53:46.795Z,8.20
2018-08-16T06:56:15.717Z,7.07
2018-08-16T06:58:44.518Z,9.07
2018-08-16T07:01:13.411Z,7.83
2018-08-16T07:03:42.239Z,9.60
2018-08-16T07:06:11.466Z,7.77
2018-08-16T07:08:40.766Z,8.80
2018-08-16T07:11:10.161Z,6.27
2018-08-16T07:13:39.111Z,5.87
2018-08-16T07:16:08.380Z,9.53
2018-08-16T07:18:37.731Z,5.90
2018-08-16T07:21:06.785Z,6.73
2018-08-16T07:23:35.945Z,6.53
2018-08-16T07:26:04.824Z,9.27
2018-08-16T07:28:33.648Z,7.43
2018-08-16T07:31:03.092Z,5.53
2018-08-16T07:33:32.018Z,8.23
2018-08-16T07:36:01.227Z,6.57
2018-08-16T07:38:30.840Z,6.03
2018-08-16T07:40:59.789Z,7.47
2018-08-16T07:43:29.103Z,6.73
2018-08-16T07:45:58.396Z,5.90
2018-08-16T07:48:27.383Z,5.93
2018-08-16T07:50:56.648Z,4.93
2018-08-16T07:53:25.977Z,7.53
2018-08-16T07:55:55.414Z,9.67
2018-08-16T07:58:24.377Z,8.00
2018-08-16T08:00:53.622Z,6.60
2018-08-16T08:03:22.503Z,8.07
2018-08-16T08:05:51.713Z,10.57
2018-08-16T08:08:20.597Z,5.63
2018-08-16T08:10:49.386Z,11.57
2018-08-16T08:13:18.936Z,7.37
2018-08-16T08:15:48.206Z,7.40
2018-08-16T08:18:17.152Z,7.00
2018-08-16T08:20:46.342Z,10.13
2018-08-16T08:23:15.705Z,6.77
2018-08-16T08:25:44.624Z,4.87
2018-08-16T08:28:13.463Z,7.87
2018-08-16T08:30:42.298Z,7.87
2018-08-16T08:33:11.538Z,5.07
2018-08-16T08:35:40.412Z,6.53
2018-08-16T08:38:12.819Z,5.57
2018-08-16T08:40:41.812Z,7.03
2018-08-16T08:43:15.484Z,5.80
2018-08-16T08:45:44.804Z,6.47
2018-08-16T08:48:13.711Z,8.43
2018-08-16T08:50:42.504Z,6.27
2018-08-16T08:53:22.860Z,4.97
2018-08-16T08:56:03.270Z,5.90
2018-08-16T08:58:37.636Z,7.07
2018-08-16T09:01:07.148Z,5.23
2018-08-16T09:03:36.482Z,5.17
2018-08-16T09:06:05.959Z,8.97
2018-08-16T09:08:34.820Z,9.07
2018-08-16T09:11:16.350Z,8.93
2018-08-16T09:13:58.852Z,4.53
2018-08-16T09:16:29.421Z,8.10
2018-08-16T09:18:58.718Z,6.47
2018-08-16T09:21:28.821Z,6.53
2018-08-16T09:23:57.868Z,7.70
2018-08-16T09:26:31.846Z,5.43
2018-08-16T09:29:01.068Z,5.47
2018-08-16T09:31:41.367Z,4.20
2018-08-16T09:34:16.720Z,4.13
2018-08-16T09:36:46.032Z,5.97
2018-08-16T09:39:14.963Z,7.30
2018-08-16T09:41:43.768Z,4.03
2018-08-16T09:44:12.727Z,5.37
2018-08-16T09:46:48.357Z,5.33
2018-08-16T09:49:17.256Z,5.13
2018-08-16T09:51:46.910Z,3.77
2018-08-16T09:54:15.771Z,6.93
2018-08-16T09:56:45.224Z,4.20
2018-08-16T09:59:14.170Z,8.37
2018-08-16T10:01:43.044Z,5.37
2018-08-16T10:04:12.045Z,8.37
2018-08-16T10:06:42.253Z,6.60
2018-08-16T10:09:13.096Z,5.13
2018-08-16T10:11:42.085Z,4.93
2018-08-16T10:14:11.304Z,9.73
2018-08-16T10:16:40.785Z,6.97
2018-08-16T10:19:09.724Z,7.67
2018-08-16T10:21:38.621Z,5.77
2018-08-16T10:24:07.518Z,6.50
2018-08-16T10:26:36.334Z,6.00
2018-08-16T10:29:06.252Z,4.50
2018-08-16T10:31:35.185Z,3.73
2018-08-16T10:34:04.529Z,6.03
2018-08-16T10:36:51.670Z,6.50
2018-08-16T10:39:42.803Z,7.57
2018-08-16T10:42:11.676Z,4.83
2018-08-16T10:44:40.898Z,5.73
2018-08-16T10:47:10.199Z,7.73
2018-08-16T10:49:39.539Z,9.30
2018-08-16T10:52:14.984Z,7.57
2018-08-16T10:54:43.905Z,7.30
2018-08-16T10:57:12.708Z,5.43
2018-08-16T10:59:41.646Z,11.53
2018-08-16T11:02:10.539Z,7.43
2018-08-16T11:04:39.401Z,4.80
2018-08-16T11:07:08.661Z,9.30
2018-08-16T11:09:44.168Z,5.70
2018-08-16T11:12:13.132Z,8.80
2018-08-16T11:14:42.338Z,4.07
2018-08-16T11:17:11.319Z,4.17
2018-08-16T11:19:40.172Z,5.00
2018-08-16T11:22:09.009Z,4.70
2018-08-16T11:24:37.805Z,4.07
2018-08-16T11:27:11.175Z,3.73
2018-08-16T11:35:32.381Z,4.20
2018-08-16T11:38:01.182Z,5.73
2018-08-16T11:40:30.038Z,3.97
2018-08-16T11:42:59.223Z,2.90
2018-08-16T11:45:28.131Z,5.27
2018-08-16T11:47:57.016Z,2.37
2018-08-16T11:50:25.883Z,3.00
2018-08-16T11:52:54.790Z,1.87
2018-08-16T11:55:23.662Z,5.53
2018-08-16T11:57:52.808Z,1.77
2018-08-16T12:00:22.388Z,2.40
2018-08-16T12:02:51.265Z,4.57
2018-08-16T12:05:20.132Z,2.87
2018-08-16T12:07:49.316Z,5.40
2018-08-16T12:10:18.272Z,4.63
2018-08-16T12:12:47.063Z,2.57
2018-08-16T12:15:15.959Z,5.43
2018-08-16T12:17:44.729Z,5.33
2018-08-16T12:20:13.968Z,3.93
2018-08-16T12:22:42.880Z,3.53
2018-08-16T12:25:12.121Z,9.33
2018-08-16T12:27:41.004Z,3.37
2018-08-16T12:30:10.475Z,5.43
2018-08-16T12:32:39.341Z,3.47
2018-08-16T12:35:08.667Z,3.97
2018-08-16T12:37:38.034Z,4.90
2018-08-16T12:40:07.174Z,6.53
2018-08-16T12:42:35.991Z,3.73
2018-08-16T12:45:05.016Z,4.53
2018-08-16T12:47:33.805Z,5.87
2018-08-16T12:50:02.680Z,4.53
2018-08-16T12:52:31.482Z,5.73
2018-08-16T12:55:00.272Z,4.27
2018-08-16T12:57:29.129Z,3.60
2018-08-16T12:59:58.037Z,2.13
2018-08-16T13:02:31.541Z,4.23
2018-08-16T13:05:29.387Z,4.30
2018-08-16T13:10:59.297Z,4.87
2018-08-16T13:13:31.576Z,2.50
2018-08-16T13:16:00.764Z,3.40
2018-08-16T13:18:45.046Z,2.37
2018-08-16T13:21:24.624Z,2.67
2018-08-16T13:23:53.600Z,3.13
2018-08-16T13:26:22.834Z,3.17
2018-08-16T13:28:53.564Z,6.33
2018-08-16T13:31:34.303Z,4.20
2018-08-16T13:34:13.734Z,3.93
2018-08-16T13:36:44.164Z,5.50
2018-08-16T13:42:20.304Z,5.17
2018-08-16T13:44:51.419Z,5.60
2018-08-16T13:47:20.265Z,4.43
2018-08-16T13:49:49.149Z,4.30
2018-08-16T13:52:17.961Z,2.87
2018-08-16T13:54:46.827Z,5.03
2018-08-16T13:57:16.038Z,3.87
2018-08-16T13:59:45.094Z,8.30
2018-08-16T14:02:14.792Z,4.50
2018-08-16T14:04:43.754Z,3.00
2018-08-16T14:07:12.606Z,2.73
2018-08-16T14:09:41.869Z,3.40
2018-08-16T14:12:10.995Z,3.87
2018-08-16T14:17:17.608Z,2.40
2018-08-16T14:20:10.948Z,3.23
2018-08-16T14:22:47.289Z,1.97
2018-08-16T14:28:09.109Z,3.47
2018-08-16T14:30:38.405Z,4.07
2018-08-16T14:35:56.842Z,3.97
2018-08-16T14:38:25.740Z,4.77
2018-08-16T14:40:55.089Z,5.10
2018-08-16T14:46:17.381Z,3.23
2018-08-16T14:48:49.260Z,4.30
2018-08-16T14:51:18.111Z,5.50
2018-08-16T14:53:47.349Z,4.40
2018-08-16T14:56:16.235Z,4.30
2018-08-16T14:58:53.208Z,2.20
2018-08-16T15:01:22.870Z,1.87
2018-08-16T15:03:51.914Z,4.10
2018-08-16T15:06:21.225Z,2.87
2018-08-16T15:08:50.154Z,5.40
2018-08-16T15:11:21.778Z,6.70
2018-08-16T15:13:50.716Z,5.30
2018-08-16T15:16:20.272Z,4.77
2018-08-16T15:18:53.373Z,5.63
2018-08-16T15:24:25.093Z,5.67
2018-08-16T15:32:44.880Z,5.17
2018-08-16T15:35:16.998Z,4.63
2018-08-16T15:38:02.195Z,6.23
2018-08-16T15:40:31.063Z,6.17
2018-08-16T15:42:59.955Z,10.47
2018-08-16T15:48:28.374Z,11.93
2018-08-16T15:50:57.306Z,9.03
2018-08-16T15:53:26.179Z,9.70
2018-08-16T15:55:56.051Z,7.47
2018-08-16T15:58:25.304Z,5.43
2018-08-16T16:01:00.767Z,10.03
2018-08-16T16:06:23.811Z,3.90
2018-08-16T16:08:53.560Z,6.50
2018-08-16T16:11:22.451Z,7.60
2018-08-16T16:13:51.347Z,9.87
2018-08-16T16:16:23.205Z,10.23
2018-08-16T16:18:57.320Z,9.17
2018-08-16T16:27:20.072Z,15.57
2018-08-16T16:29:48.980Z,10.43
2018-08-16T16:32:18.024Z,8.77
2018-08-16T16:34:46.931Z,7.93
2018-08-16T16:37:15.813Z,7.40
2018-08-16T16:39:44.637Z,8.40
2018-08-16T16:42:13.917Z,7.43
2018-08-16T16:44:42.888Z,9.00
2018-08-16T16:47:11.788Z,7.67
2018-08-16T16:49:40.652Z,9.60
2018-08-16T16:52:09.981Z,5.77
2018-08-16T16:54:39.382Z,12.23
2018-08-16T16:57:08.287Z,8.60
2018-08-16T16:59:37.147Z,8.90
2018-08-16T17:02:06.109Z,10.97
2018-08-16T17:04:35.132Z,5.70
2018-08-16T17:07:05.202Z,6.70
2018-08-16T17:15:21.445Z,14.33
2018-08-16T17:17:50.786Z,12.07
2018-08-16T17:23:13.416Z,9.87
2018-08-16T17:40:35.971Z,16.57
2018-08-16T17:43:11.316Z,8.60
2018-08-16T17:45:40.254Z,12.63
2018-08-16T17:48:09.268Z,9.27
2018-08-16T17:50:38.151Z,13.40
2018-08-16T17:53:07.629Z,9.97
2018-08-16T17:55:37.726Z,8.83
2018-08-16T17:58:15.046Z,5.70
2018-08-16T18:00:44.041Z,6.13
2018-08-16T18:03:12.848Z,10.50
2018-08-16T18:17:45.547Z,10.77
2018-08-16T18:20:14.398Z,14.27
2018-08-16T18:22:43.184Z,14.07
2018-08-16T18:25:11.920Z,9.90
2018-08-16T18:27:40.711Z,14.40
2018-08-16T18:30:10.579Z,9.23
2018-08-16T18:32:39.399Z,14.43
2018-08-16T18:35:08.273Z,11.10
2018-08-16T18:37:37.138Z,15.03
2018-08-16T18:40:06.326Z,7.43
2018-08-16T18:42:35.189Z,15.20
2018-08-16T18:45:04.317Z,11.93
2018-08-16T18:47:33.084Z,14.20
2018-08-16T18:50:01.846Z,16.33
2018-08-16T18:52:30.657Z,13.10
2018-08-16T18:54:59.395Z,8.50
2018-08-16T18:57:28.419Z,14.60
2018-08-16T18:59:57.279Z,11.97
2018-08-16T19:02:26.086Z,8.40
2018-08-16T19:04:54.859Z,19.20
2018-08-16T19:07:23.729Z,17.43
2018-08-16T19:09:52.445Z,15.00
2018-08-16T19:12:21.207Z,16.83
2018-08-16T19:14:49.991Z,13.77
2018-08-16T19:17:18.783Z,17.43
2018-08-16T19:19:47.585Z,15.27
2018-08-16T19:22:16.359Z,19.93
2018-08-16T19:24:45.181Z,14.33
2018-08-16T19:27:13.991Z,14.70
2018-08-16T19:29:42.835Z,13.63
2018-08-16T19:32:11.564Z,24.97
2018-08-16T19:34:40.335Z,16.13
2018-08-16T19:37:09.099Z,11.93
2018-08-16T19:39:37.880Z,14.70
2018-08-16T19:42:06.699Z,15.57
2018-08-16T19:44:35.842Z,14.37
2018-08-16T19:47:04.681Z,22.00
2018-08-16T19:49:33.491Z,6.50
2018-08-16T19:52:02.255Z,19.80
2018-08-16T19:54:31.035Z,12.97
2018-08-16T19:56:59.829Z,18.33
2018-08-16T19:59:28.574Z,13.53
2018-08-16T20:01:57.333Z,21.27
2018-08-16T20:04:26.161Z,19.73
2018-08-16T20:06:55.176Z,17.83
2018-08-16T20:09:23.907Z,19.37
2018-08-16T20:11:52.663Z,15.33
2018-08-16T20:14:21.586Z,11.57
2018-08-16T20:16:50.341Z,11.70
2018-08-16T20:19:19.167Z,13.37
2018-08-16T20:21:47.997Z,11.07
2018-08-16T20:24:16.880Z,15.70
2018-08-16T20:26:45.752Z,14.53
2018-08-16T20:29:14.604Z,14.53
2018-08-16T20:31:43.451Z,12.87
2018-08-16T20:34:12.377Z,12.87
2018-08-16T20:36:41.140Z,8.57
2018-08-16T20:39:10.070Z,21.40
2018-08-16T20:41:38.871Z,12.30
2018-08-16T20:44:07.700Z,28.80
2018-08-16T20:46:36.569Z,17.97
2018-08-16T20:49:05.322Z,17.70
2018-08-16T20:51:34.100Z,12.83
2018-08-16T20:54:02.894Z,15.77
2018-08-16T20:56:31.679Z,16.17
2018-08-16T20:59:00.522Z,18.43
2018-08-16T21:01:29.338Z,8.97
2018-08-16T21:03:58.154Z,12.60
2018-08-16T21:06:26.963Z,20.63
2018-08-16T21:08:55.772Z,11.97
2018-08-16T21:11:24.528Z,16.57
2018-08-16T21:13:53.321Z,14.77
2018-08-16T21:16:22.087Z,24.13
2018-08-16T21:18:50.859Z,23.97
2018-08-16T21:21:19.654Z,16.83
2018-08-16T21:23:48.439Z,13.87
2018-08-16T21:26:17.233Z,18.93
2018-08-16T21:28:45.971Z,18.90
2018-08-16T21:31:14.759Z,11.83
2018-08-16T21:33:43.534Z,18.63
2018-08-16T21:36:12.314Z,12.23
2018-08-16T21:38:41.111Z,20.03
2018-08-16T21:41:09.889Z,17.63
2018-08-16T21:43:38.631Z,16.57
2018-08-16T21:46:07.419Z,24.27
2018-08-16T21:48:36.219Z,9.83
2018-08-16T21:51:05.026Z,15.90
2018-08-16T21:53:33.969Z,19.77
2018-08-16T21:56:02.797Z,21.23
2018-08-16T21:58:31.547Z,17.67
2018-08-16T22:01:04.404Z,14.93
2018-08-16T22:03:33.181Z,13.27
2018-08-16T22:06:04.530Z,14.10
2018-08-16T22:08:49.767Z,14.83
2018-08-16T22:11:18.754Z,21.50
2018-08-16T22:13:47.571Z,20.00
2018-08-16T22:16:16.319Z,16.80
2018-08-16T22:18:45.107Z,16.43
2018-08-16T22:21:13.885Z,14.10
2018-08-16T22:23:42.656Z,16.67
2018-08-16T22:26:11.500Z,23.30
2018-08-16T22:28:40.228Z,16.97
2018-08-16T22:31:09.162Z,22.97
2018-08-16T22:33:37.965Z,15.60
2018-08-16T22:36:07.174Z,17.07
2018-08-16T22:38:36.068Z,18.07
2018-08-16T22:41:04.898Z,15.73
2018-08-16T22:43:33.691Z,15.30
2018-08-16T22:46:02.450Z,10.33
2018-08-16T22:48:31.244Z,21.77
2018-08-16T22:51:00.043Z,15.10
2018-08-16T22:53:28.840Z,10.50
2018-08-16T22:55:57.687Z,8.10
2018-08-16T22:58:26.470Z,5.37
2018-08-16T23:00:55.385Z,12.27
2018-08-16T23:03:24.131Z,13.10
2018-08-16T23:05:52.943Z,10.67
2018-08-16T23:08:21.726Z,11.83
2018-08-16T23:10:50.475Z,8.37
2018-08-16T23:13:19.248Z,7.53
2018-08-16T23:15:47.987Z,10.10
2018-08-16T23:18:16.739Z,12.03
2018-08-16T23:20:45.471Z,8.47
2018-08-16T23:23:14.268Z,7.70
2018-08-16T23:25:43.039Z,8.10
2018-08-16T23:28:11.779Z,8.23
2018-08-16T23:30:40.543Z,10.03
2018-08-16T23:33:09.295Z,10.13
2018-08-16T23:35:38.083Z,9.23
2018-08-16T23:38:06.882Z,7.07
2018-08-16T23:40:35.676Z,7.23
2018-08-16T23:43:04.450Z,6.17
2018-08-16T23:45:33.223Z,6.50
2018-08-16T23:48:07.503Z,13.03
2018-08-16T23:50:36.283Z,8.23
2018-08-16T23:53:05.065Z,8.60
2018-08-16T23:55:33.826Z,5.77
2018-08-16T23:58:08.936Z,6.80
